createdAt,value
2022-12-23T00:01:43.496Z,51.02
2022-12-23T00:04:11.986Z,51.04
2022-12-23T00:06:40.509Z,50.98
2022-12-23T00:09:08.905Z,51.06
2022-12-23T00:11:37.275Z,50.94
2022-12-23T00:14:23.174Z,50.76
2022-12-23T00:16:53.328Z,50.83
2022-12-23T00:19:21.877Z,50.89
2022-12-23T00:21:50.287Z,50.83
2022-12-23T00:24:18.894Z,50.93
2022-12-23T00:26:47.294Z,51.04
2022-12-23T00:29:15.750Z,50.95
2022-12-23T00:31:44.204Z,50.92
2022-12-23T00:34:14.217Z,50.96
2022-12-23T00:36:42.678Z,50.85
2022-12-23T00:39:31.744Z,51.14
2022-12-23T00:42:17.466Z,51.22
2022-12-23T00:44:46.081Z,51.37
2022-12-23T00:47:36.166Z,51.37
2022-12-23T00:50:06.217Z,51.31
2022-12-23T00:52:34.810Z,51.31
2022-12-23T00:55:03.195Z,51.40
2022-12-23T00:57:31.614Z,51.18
2022-12-23T01:00:00.014Z,51.58
2022-12-23T01:02:46.120Z,51.35
2022-12-23T01:05:33.316Z,51.49
2022-12-23T01:08:01.788Z,51.83
2022-12-23T01:10:30.434Z,51.65
2022-12-23T01:12:58.826Z,51.52
2022-12-23T01:15:27.587Z,51.96
2022-12-23T01:17:56.457Z,51.98
2022-12-23T01:20:26.517Z,52.10
2022-12-23T01:22:54.951Z,52.12
2022-12-23T01:25:23.363Z,52.24
2022-12-23T01:27:51.797Z,52.05
2022-12-23T01:30:20.411Z,52.22
2022-12-23T01:32:48.780Z,52.03
2022-12-23T01:35:17.469Z,52.02
2022-12-23T01:37:47.221Z,51.98
2022-12-23T01:40:15.774Z,52.54
2022-12-23T01:42:46.762Z,52.18
2022-12-23T01:45:18.864Z,52.57
2022-12-23T01:47:54.469Z,52.24
2022-12-23T01:50:27.369Z,52.21
2022-12-23T01:53:08.048Z,52.51
2022-12-23T01:55:44.537Z,52.64
2022-12-23T01:58:19.076Z,52.41
2022-12-23T02:01:04.749Z,52.26
2022-12-23T02:03:45.484Z,52.32
2022-12-23T02:06:38.179Z,52.72
2022-12-23T02:09:20.983Z,52.71
2022-12-23T02:12:36.914Z,52.84
2022-12-23T02:15:42.074Z,52.51
2022-12-23T02:18:55.611Z,52.80
2022-12-23T02:22:17.738Z,52.71
2022-12-23T02:25:26.901Z,52.86
2022-12-23T02:28:18.768Z,52.75
2022-12-23T02:30:55.801Z,52.42
2022-12-23T02:33:51.308Z,52.72
2022-12-23T02:36:35.947Z,52.64
2022-12-23T02:39:09.890Z,52.38
2022-12-23T02:41:49.538Z,52.63
2022-12-23T02:44:31.272Z,52.43
2022-12-23T02:47:06.734Z,52.57
2022-12-23T02:49:39.180Z,52.37
2022-12-23T02:52:18.476Z,52.54
2022-12-23T02:54:54.807Z,52.64
2022-12-23T02:57:30.799Z,53.11
2022-12-23T03:00:00.184Z,52.46
2022-12-23T03:02:31.708Z,52.70
2022-12-23T03:05:01.167Z,52.34
2022-12-23T03:07:36.548Z,52.70
2022-12-23T03:10:17.701Z,52.73
2022-12-23T03:13:01.998Z,52.58
2022-12-23T03:15:40.225Z,52.49
2022-12-23T03:18:22.301Z,52.48
2022-12-23T03:20:55.931Z,52.47
2022-12-23T03:23:30.308Z,52.34
2022-12-23T03:26:05.770Z,52.40
2022-12-23T03:28:41.093Z,52.37
2022-12-23T03:31:15.726Z,52.27
2022-12-23T03:33:49.303Z,52.32
2022-12-23T03:36:23.464Z,52.12
2022-12-23T03:38:54.799Z,52.30
2022-12-23T03:41:31.427Z,52.14
2022-12-23T03:44:07.555Z,51.98
2022-12-23T03:46:40.631Z,51.92
2022-12-23T03:49:16.178Z,52.30
2022-12-23T03:51:52.245Z,52.15
2022-12-23T03:54:27.303Z,52.27
2022-12-23T03:57:03.733Z,52.28
2022-12-23T03:59:35.719Z,52.39
2022-12-23T04:02:11.803Z,52.40
2022-12-23T04:05:19.661Z,52.31
2022-12-23T04:07:55.690Z,52.65
2022-12-23T04:10:25.126Z,52.36
2022-12-23T04:12:53.799Z,52.04
2022-12-23T04:15:23.966Z,52.16
2022-12-23T04:17:54.371Z,51.88
2022-12-23T04:20:24.699Z,52.29
2022-12-23T04:22:53.228Z,52.35
2022-12-23T04:25:21.667Z,52.33
2022-12-23T04:27:50.086Z,52.27
2022-12-23T04:30:18.655Z,52.71
2022-12-23T04:32:47.163Z,52.93
2022-12-23T04:35:15.605Z,52.91
2022-12-23T04:37:45.416Z,53.06
2022-12-23T04:40:14.579Z,53.04
2022-12-23T04:42:42.980Z,53.33
2022-12-23T04:45:12.372Z,53.25
2022-12-23T04:47:41.554Z,53.68
2022-12-23T04:50:15.787Z,53.58
2022-12-23T04:52:46.244Z,54.11
2022-12-23T04:55:14.704Z,54.32
2022-12-23T04:57:43.193Z,54.25
2022-12-23T05:00:13.108Z,54.48
2022-12-23T05:02:41.582Z,54.23
2022-12-23T05:05:10.795Z,54.36
2022-12-23T05:07:39.189Z,54.54
2022-12-23T05:10:11.129Z,54.59
2022-12-23T05:12:39.530Z,54.96
2022-12-23T05:15:10.153Z,54.83
2022-12-23T05:17:38.544Z,55.26
2022-12-23T05:20:08.967Z,55.14
2022-12-23T05:22:37.475Z,55.19
2022-12-23T05:25:09.072Z,55.33
2022-12-23T05:27:37.868Z,55.55
2022-12-23T05:30:08.429Z,55.64
2022-12-23T05:32:36.998Z,55.98
2022-12-23T05:35:06.002Z,56.14
2022-12-23T05:37:34.374Z,55.88
2022-12-23T05:40:02.779Z,56.25
2022-12-23T05:42:32.754Z,55.91
2022-12-23T05:45:01.110Z,56.30
2022-12-23T05:47:29.537Z,56.34
2022-12-23T05:49:57.927Z,56.10
2022-12-23T05:52:26.451Z,56.46
2022-12-23T05:54:54.893Z,56.50
2022-12-23T05:57:23.389Z,56.60
2022-12-23T05:59:53.747Z,56.42
2022-12-23T06:02:22.499Z,56.58
2022-12-23T06:04:51.261Z,56.56
2022-12-23T06:07:19.658Z,56.42
2022-12-23T06:09:48.238Z,56.59
2022-12-23T06:12:16.618Z,56.71
2022-12-23T06:14:45.077Z,56.68
2022-12-23T06:17:14.919Z,56.38
2022-12-23T06:19:43.436Z,56.19
2022-12-23T06:22:11.843Z,56.12
2022-12-23T06:24:40.334Z,56.50
2022-12-23T06:27:08.944Z,56.58
2022-12-23T06:29:37.439Z,56.58
2022-12-23T06:32:06.535Z,56.52
2022-12-23T06:34:36.625Z,56.57
2022-12-23T06:37:05.058Z,56.05
2022-12-23T06:39:33.518Z,56.45
2022-12-23T06:42:01.948Z,56.57
2022-12-23T06:44:30.431Z,56.48
2022-12-23T06:46:59.035Z,56.21
2022-12-23T06:49:27.466Z,55.91
2022-12-23T06:51:57.283Z,56.34
2022-12-23T06:54:25.752Z,55.99
2022-12-23T06:56:54.253Z,56.02
2022-12-23T06:59:22.695Z,56.25
2022-12-23T07:01:51.238Z,56.43
2022-12-23T07:04:19.841Z,56.34
2022-12-23T07:06:48.271Z,56.37
2022-12-23T07:09:18.320Z,56.26
2022-12-23T07:11:46.978Z,55.77
2022-12-23T07:14:15.548Z,56.23
2022-12-23T07:16:43.995Z,55.91
2022-12-23T07:19:12.478Z,55.83
2022-12-23T07:21:40.993Z,55.86
2022-12-23T07:24:10.179Z,56.10
2022-12-23T07:26:40.007Z,55.80
2022-12-23T07:29:08.429Z,55.92
2022-12-23T07:31:40.705Z,56.13
2022-12-23T07:34:09.971Z,55.93
2022-12-23T07:36:38.470Z,56.05
2022-12-23T07:39:07.241Z,56.28
2022-12-23T07:41:35.780Z,56.04
2022-12-23T07:44:05.729Z,56.11
2022-12-23T07:46:34.200Z,56.33
2022-12-23T07:49:02.659Z,56.13
2022-12-23T07:51:31.179Z,55.99
2022-12-23T07:54:00.099Z,56.15
2022-12-23T07:56:28.684Z,56.18
2022-12-23T07:58:57.164Z,55.94
2022-12-23T08:01:27.144Z,55.82
2022-12-23T08:03:56.331Z,56.03
2022-12-23T08:06:24.893Z,55.83
2022-12-23T08:08:53.512Z,55.99
2022-12-23T08:11:21.938Z,55.14
2022-12-23T08:13:50.470Z,55.33
2022-12-23T08:16:18.999Z,55.22
2022-12-23T08:18:48.945Z,54.90
2022-12-23T08:21:20.092Z,55.46
2022-12-23T08:23:49.487Z,55.41
2022-12-23T08:26:22.309Z,55.50
2022-12-23T08:28:53.583Z,55.20
2022-12-23T08:31:25.343Z,55.13
2022-12-23T08:33:58.055Z,55.30
2022-12-23T08:36:29.499Z,55.16
2022-12-23T08:39:01.095Z,55.05
2022-12-23T08:41:32.531Z,55.17
2022-12-23T08:44:01.449Z,54.95
2022-12-23T08:46:30.324Z,55.12
2022-12-23T08:49:00.390Z,54.53
2022-12-23T08:51:29.519Z,54.71
2022-12-23T08:54:00.924Z,54.70
2022-12-23T08:56:33.302Z,54.73
2022-12-23T08:59:02.300Z,54.60
2022-12-23T09:01:33.450Z,54.28
2022-12-23T09:04:06.180Z,54.34
2022-12-23T09:06:37.557Z,54.44
2022-12-23T09:09:06.660Z,54.65
2022-12-23T09:11:36.087Z,54.95
2022-12-23T09:14:05.421Z,54.57
2022-12-23T09:16:33.986Z,54.71
2022-12-23T09:19:04.471Z,54.33
2022-12-23T09:21:32.958Z,54.29
2022-12-23T09:24:01.660Z,54.26
2022-12-23T09:26:32.307Z,54.12
2022-12-23T09:29:01.836Z,53.10
2022-12-23T09:31:36.249Z,53.49
2022-12-23T09:34:07.685Z,53.61
2022-12-23T09:36:36.208Z,53.34
2022-12-23T09:39:05.274Z,53.61
2022-12-23T09:41:50.069Z,53.59
2022-12-23T09:44:44.766Z,53.82
2022-12-23T09:47:18.781Z,53.53
2022-12-23T09:49:53.705Z,53.27
2022-12-23T09:52:28.382Z,53.45
2022-12-23T09:54:57.348Z,53.29
2022-12-23T09:57:37.454Z,53.34
2022-12-23T10:00:13.207Z,53.53
2022-12-23T10:03:01.696Z,53.38
2022-12-23T10:05:45.079Z,53.40
2022-12-23T10:08:23.716Z,53.35
2022-12-23T10:10:57.991Z,53.13
2022-12-23T10:13:29.796Z,53.42
2022-12-23T10:16:03.955Z,53.22
2022-12-23T10:18:46.955Z,53.14
2022-12-23T10:21:26.468Z,52.94
2022-12-23T10:23:56.526Z,52.91
2022-12-23T10:26:31.391Z,53.26
2022-12-23T10:29:11.798Z,53.07
2022-12-23T10:31:56.842Z,52.91
2022-12-23T10:34:38.601Z,52.81
2022-12-23T10:37:16.205Z,52.59
2022-12-23T10:39:51.736Z,52.47
2022-12-23T10:42:29.618Z,52.31
2022-12-23T10:45:28.854Z,52.48
2022-12-23T10:48:14.152Z,52.50
2022-12-23T10:50:56.889Z,52.54
2022-12-23T10:53:38.562Z,52.79
2022-12-23T10:56:08.511Z,52.74
2022-12-23T10:58:42.485Z,53.02
2022-12-23T11:01:22.098Z,53.09
2022-12-23T11:04:04.937Z,53.04
2022-12-23T11:06:38.030Z,53.08
2022-12-23T11:09:16.113Z,52.94
2022-12-23T11:12:00.794Z,52.90
2022-12-23T11:14:36.441Z,52.80
2022-12-23T11:17:16.120Z,52.84
2022-12-23T11:19:44.679Z,52.84
2022-12-23T11:22:25.337Z,52.79
2022-12-23T11:24:55.239Z,52.89
2022-12-23T11:27:23.777Z,52.77
2022-12-23T11:29:55.367Z,52.85
2022-12-23T11:32:28.649Z,52.89
2022-12-23T11:34:58.103Z,52.94
2022-12-23T11:37:42.431Z,52.72
2022-12-23T11:40:25.399Z,52.84
2022-12-23T11:42:59.220Z,52.64
2022-12-23T11:45:30.276Z,52.70
2022-12-23T11:47:58.875Z,52.47
2022-12-23T11:50:34.379Z,52.36
2022-12-23T11:53:13.523Z,52.32
2022-12-23T11:55:58.383Z,52.38
2022-12-23T11:58:28.873Z,51.74
2022-12-23T12:01:00.708Z,51.55
2022-12-23T12:03:34.098Z,51.29
2022-12-23T12:06:06.371Z,51.22
2022-12-23T12:08:38.494Z,50.64
2022-12-23T12:11:16.674Z,50.19
2022-12-23T12:13:49.429Z,49.84
2022-12-23T12:16:49.452Z,49.67
2022-12-23T12:19:25.611Z,49.85
2022-12-23T12:22:00.576Z,49.27
2022-12-23T12:24:34.173Z,48.89
2022-12-23T12:27:09.265Z,48.98
2022-12-23T12:29:46.530Z,48.98
2022-12-23T12:32:23.833Z,46.43
2022-12-23T12:34:58.988Z,47.23
2022-12-23T12:37:39.245Z,47.60
2022-12-23T12:40:23.633Z,47.85
2022-12-23T12:43:00.009Z,48.07
2022-12-23T12:45:35.901Z,48.26
2022-12-23T12:48:37.624Z,48.72
2022-12-23T12:51:14.243Z,49.06
2022-12-23T12:54:02.882Z,49.22
2022-12-23T12:56:42.205Z,49.43
2022-12-23T12:59:19.099Z,49.58
2022-12-23T13:02:01.673Z,49.43
2022-12-23T13:05:25.975Z,49.33
2022-12-23T13:08:13.010Z,49.07
2022-12-23T13:10:50.062Z,48.96
2022-12-23T13:13:36.626Z,48.84
2022-12-23T13:16:18.309Z,48.84
2022-12-23T13:18:57.591Z,48.73
2022-12-23T13:21:34.028Z,48.59
2022-12-23T13:24:16.122Z,48.85
2022-12-23T13:26:59.974Z,48.83
2022-12-23T13:30:01.858Z,48.97
2022-12-23T13:32:59.810Z,48.99
2022-12-23T13:35:43.405Z,48.84
2022-12-23T13:38:31.028Z,49.10
2022-12-23T13:41:07.116Z,48.90
2022-12-23T13:43:44.781Z,49.03
2022-12-23T13:46:36.955Z,48.85
2022-12-23T13:49:16.874Z,49.06
2022-12-23T13:51:53.346Z,49.06
2022-12-23T13:54:37.953Z,49.39
2022-12-23T13:57:19.422Z,49.57
2022-12-23T14:00:06.359Z,49.33
2022-12-23T14:02:52.017Z,49.54
2022-12-23T14:05:38.015Z,49.52
2022-12-23T14:08:09.491Z,49.57
2022-12-23T14:10:38.152Z,49.61
2022-12-23T14:13:09.662Z,49.50
2022-12-23T14:16:05.366Z,49.43
2022-12-23T14:19:05.563Z,49.33
2022-12-23T14:21:49.527Z,49.35
2022-12-23T14:25:13.217Z,49.70
2022-12-23T14:27:52.723Z,49.56
2022-12-23T14:30:29.133Z,49.60
2022-12-23T14:33:01.399Z,49.74
2022-12-23T14:35:58.641Z,49.82
2022-12-23T14:38:31.668Z,49.81
2022-12-23T14:41:25.746Z,49.67
2022-12-23T14:43:59.691Z,49.86
2022-12-23T14:46:59.417Z,49.90
2022-12-23T14:49:48.799Z,50.07
2022-12-23T14:52:49.061Z,50.15
2022-12-23T14:55:45.806Z,50.32
2022-12-23T14:59:12.488Z,50.29
2022-12-23T15:01:44.368Z,50.27
2022-12-23T15:04:24.574Z,50.39
2022-12-23T15:06:58.486Z,50.38
2022-12-23T15:09:31.454Z,50.26
2022-12-23T15:12:07.649Z,50.22
2022-12-23T15:14:40.943Z,50.44
2022-12-23T15:17:26.494Z,50.37
2022-12-23T15:20:03.404Z,50.41
2022-12-23T15:22:32.889Z,50.61
2022-12-23T15:25:01.365Z,50.58
2022-12-23T15:27:36.518Z,50.61
2022-12-23T15:30:05.799Z,50.51
2022-12-23T15:32:34.356Z,50.45
2022-12-23T15:35:07.306Z,50.43
2022-12-23T15:37:36.211Z,50.82
2022-12-23T15:40:13.228Z,50.66
2022-12-23T15:42:49.104Z,50.73
2022-12-23T15:45:36.232Z,50.81
2022-12-23T15:48:07.095Z,50.61
2022-12-23T15:50:41.889Z,50.62
2022-12-23T15:53:14.357Z,50.58
2022-12-23T15:55:43.008Z,50.52
2022-12-23T15:58:21.180Z,50.57
2022-12-23T16:00:57.541Z,50.57
2022-12-23T16:03:33.002Z,50.50
2022-12-23T16:06:18.763Z,50.69
2022-12-23T16:08:56.400Z,50.64
2022-12-23T16:11:25.155Z,50.83
2022-12-23T16:14:01.361Z,50.67
2022-12-23T16:16:41.829Z,50.69
2022-12-23T16:19:43.793Z,50.66
2022-12-23T16:22:30.532Z,50.55
2022-12-23T16:25:11.929Z,50.61
2022-12-23T16:27:44.700Z,50.44
2022-12-23T16:30:19.607Z,50.45
2022-12-23T16:32:52.497Z,50.39
2022-12-23T16:35:40.457Z,50.60
2022-12-23T16:38:15.831Z,50.48
2022-12-23T16:40:46.144Z,50.57
2022-12-23T16:43:15.050Z,50.33
2022-12-23T16:45:46.041Z,50.34
2022-12-23T16:48:26.292Z,50.36
2022-12-23T16:50:55.618Z,50.30
2022-12-23T16:53:24.165Z,50.29
2022-12-23T16:55:56.810Z,50.24
2022-12-23T16:58:28.961Z,50.14
2022-12-23T17:00:59.173Z,50.18
2022-12-23T17:03:27.765Z,50.21
2022-12-23T17:05:56.411Z,50.22
2022-12-23T17:08:24.971Z,50.19
2022-12-23T17:10:53.907Z,50.41
2022-12-23T17:13:22.364Z,50.39
2022-12-23T17:15:50.793Z,50.20
2022-12-23T17:18:20.721Z,50.22
2022-12-23T17:20:50.334Z,49.95
2022-12-23T17:23:29.523Z,50.32
2022-12-23T17:25:58.461Z,50.33
2022-12-23T17:28:31.994Z,50.31
2022-12-23T17:31:01.813Z,50.28
2022-12-23T17:33:33.523Z,50.30
2022-12-23T17:36:03.045Z,50.26
2022-12-23T17:38:31.627Z,50.45
2022-12-23T17:41:00.198Z,50.50
2022-12-23T17:43:29.283Z,50.46
2022-12-23T17:45:57.794Z,50.63
2022-12-23T17:48:31.384Z,50.75
2022-12-23T17:51:01.618Z,50.60
2022-12-23T17:53:30.139Z,50.53
2022-12-23T17:55:58.591Z,50.54
2022-12-23T17:58:27.035Z,50.61
2022-12-23T18:00:55.528Z,50.69
2022-12-23T18:03:25.035Z,50.70
2022-12-23T18:06:01.223Z,50.83
2022-12-23T18:08:31.733Z,50.93
2022-12-23T18:11:01.127Z,50.90
2022-12-23T18:13:29.709Z,51.03
2022-12-23T18:15:58.384Z,51.08
2022-12-23T18:18:35.608Z,51.09
2022-12-23T18:21:12.821Z,50.87
2022-12-23T18:23:42.931Z,50.69
2022-12-23T18:26:15.198Z,50.68
2022-12-23T18:28:44.018Z,50.56
2022-12-23T18:31:18.520Z,50.63
2022-12-23T18:33:47.374Z,50.63
2022-12-23T18:36:24.039Z,50.66
2022-12-23T18:38:54.524Z,50.63
2022-12-23T18:41:24.293Z,50.75
2022-12-23T18:43:52.952Z,50.81
2022-12-23T18:46:21.788Z,50.90
2022-12-23T18:48:51.607Z,50.97
2022-12-23T18:51:22.646Z,50.92
2022-12-23T18:53:51.548Z,50.89
2022-12-23T18:56:22.816Z,50.97
2022-12-23T18:58:51.307Z,50.90
2022-12-23T19:01:20.519Z,51.01
2022-12-23T19:03:49.123Z,50.87
2022-12-23T19:06:17.883Z,51.09
2022-12-23T19:08:46.587Z,51.31
2022-12-23T19:11:17.414Z,51.01
2022-12-23T19:13:47.837Z,51.51
2022-12-23T19:16:18.580Z,51.75
2022-12-23T19:18:48.267Z,52.12
2022-12-23T19:21:18.391Z,52.16
2022-12-23T19:23:46.955Z,52.21
2022-12-23T19:26:16.268Z,52.41
2022-12-23T19:28:48.180Z,52.58
2022-12-23T19:31:18.545Z,52.66
2022-12-23T19:33:48.370Z,52.65
2022-12-23T19:36:20.218Z,52.76
2022-12-23T19:38:48.753Z,52.70
2022-12-23T19:41:17.426Z,52.88
2022-12-23T19:43:47.952Z,52.80
2022-12-23T19:46:17.995Z,53.04
2022-12-23T19:48:52.921Z,53.24
2022-12-23T19:51:21.849Z,53.38
2022-12-23T19:53:53.090Z,53.59
2022-12-23T19:56:22.389Z,53.90
2022-12-23T19:58:52.270Z,53.94
2022-12-23T20:01:24.029Z,54.21
2022-12-23T20:03:54.878Z,54.29
2022-12-23T20:06:25.635Z,54.67
2022-12-23T20:09:00.011Z,54.83
2022-12-23T20:11:31.023Z,55.05
2022-12-23T20:14:02.642Z,55.38
2022-12-23T20:16:32.264Z,55.40
2022-12-23T20:19:01.131Z,55.52
2022-12-23T20:21:30.894Z,55.73
2022-12-23T20:23:59.482Z,56.56
2022-12-23T20:26:29.184Z,56.32
2022-12-23T20:28:58.512Z,56.06
2022-12-23T20:31:31.814Z,55.96
2022-12-23T20:34:01.951Z,56.17
2022-12-23T20:36:34.242Z,56.36
2022-12-23T20:39:04.112Z,56.30
2022-12-23T20:41:33.727Z,56.54
2022-12-23T20:44:33.882Z,56.82
2022-12-23T20:46:52.881Z,56.90
2022-12-23T20:49:21.581Z,57.17
2022-12-23T20:51:50.093Z,57.22
2022-12-23T20:54:18.634Z,57.42
2022-12-23T20:56:47.154Z,57.44
2022-12-23T20:59:15.612Z,57.67
2022-12-23T21:01:44.096Z,57.81
2022-12-23T21:04:16.832Z,57.79
2022-12-23T21:06:45.887Z,57.96
2022-12-23T21:09:16.483Z,58.06
2022-12-23T21:11:47.479Z,58.00
2022-12-23T21:14:16.890Z,58.06
2022-12-23T21:16:45.866Z,58.25
2022-12-23T21:19:19.691Z,58.33
2022-12-23T21:21:49.220Z,58.46
2022-12-23T21:24:18.664Z,58.44
2022-12-23T21:26:55.619Z,58.47
2022-12-23T21:29:25.151Z,58.39
2022-12-23T21:31:55.027Z,58.46
2022-12-23T21:34:25.380Z,58.63
2022-12-23T21:36:53.985Z,58.47
2022-12-23T21:39:22.543Z,58.52
2022-12-23T21:41:52.778Z,58.59
2022-12-23T21:44:21.236Z,58.64
2022-12-23T21:46:52.119Z,58.66
2022-12-23T21:49:21.490Z,58.71
2022-12-23T21:51:51.469Z,58.59
2022-12-23T21:54:20.012Z,58.44
2022-12-23T21:56:48.459Z,58.36
2022-12-23T21:59:17.088Z,58.38
2022-12-23T22:01:45.690Z,58.43
2022-12-23T22:04:14.663Z,58.55
2022-12-23T22:06:45.700Z,58.58
2022-12-23T22:09:18.506Z,58.58
2022-12-23T22:11:47.969Z,58.76
2022-12-23T22:14:19.879Z,58.66
2022-12-23T22:16:48.464Z,58.50
2022-12-23T22:19:17.701Z,58.57
2022-12-23T22:21:46.382Z,58.59
2022-12-23T22:24:16.239Z,58.55
2022-12-23T22:26:44.713Z,58.49
2022-12-23T22:29:13.452Z,58.51
2022-12-23T22:31:45.989Z,58.52
2022-12-23T22:34:17.585Z,58.29
2022-12-23T22:36:46.618Z,58.30
2022-12-23T22:39:21.008Z,58.42
2022-12-23T22:41:50.571Z,58.36
2022-12-23T22:44:19.600Z,58.06
2022-12-23T22:46:48.075Z,57.83
2022-12-23T22:49:17.700Z,57.96
2022-12-23T22:51:46.554Z,57.81
2022-12-23T22:54:16.435Z,57.91
2022-12-23T22:56:45.885Z,57.91
2022-12-23T22:59:22.780Z,57.76
2022-12-23T23:01:53.561Z,57.74
2022-12-23T23:04:22.523Z,57.97
2022-12-23T23:06:51.146Z,57.89
2022-12-23T23:09:23.205Z,57.77
2022-12-23T23:11:54.259Z,57.89
2022-12-23T23:14:22.795Z,57.81
2022-12-23T23:16:51.404Z,57.96
2022-12-23T23:19:21.278Z,57.86
2022-12-23T23:21:49.974Z,57.82
2022-12-23T23:24:18.480Z,57.67
2022-12-23T23:26:48.334Z,57.73
2022-12-23T23:29:16.848Z,57.66
2022-12-23T23:31:45.428Z,57.59
2022-12-23T23:34:13.948Z,57.85
2022-12-23T23:36:42.898Z,57.54
2022-12-23T23:39:13.798Z,57.68
2022-12-23T23:41:42.533Z,57.83
2022-12-23T23:44:13.036Z,57.53
2022-12-23T23:46:41.730Z,57.55
2022-12-23T23:49:10.211Z,57.64
2022-12-23T23:51:39.248Z,57.53
2022-12-23T23:54:07.888Z,57.59
2022-12-23T23:56:39.236Z,57.65
2022-12-23T23:59:09.029Z,57.54
